Time;durP1;ratioP1;P1;durP2;ratioP2;P2;SDS_P1;SDS_P2;PMS_P1;PMS_P2;Temp;Humidity;BMP_temperature;BMP_pressure;BME280_temperature;BME280_humidity;BME280_pressure;Samples;Min_cycle;Max_cycle;Signal;HPM_P1;HPM_P2
2021/08/29 00:01:51;;;;;;;11.13;8.07;;;16.40;99.90;;;;;;4919083;29;20900;-70
2021/08/29 00:04:20;;;;;;;14.80;7.50;;;16.30;99.90;;;;;;4935825;29;20446;-70
2021/08/29 00:06:48;;;;;;;12.63;9.00;;;16.30;99.90;;;;;;4936115;29;20989;-70
2021/08/29 00:09:16;;;;;;;15.17;8.70;;;16.30;99.90;;;;;;4918950;29;20884;-70
2021/08/29 00:11:44;;;;;;;10.40;8.27;;;16.30;99.90;;;;;;4918978;29;20948;-70
2021/08/29 00:14:12;;;;;;;12.40;9.20;;;16.30;99.90;;;;;;4936137;29;20471;-71
2021/08/29 00:16:42;;;;;;;12.40;7.93;;;16.30;99.90;;;;;;4918888;29;20821;-70
2021/08/29 00:19:10;;;;;;;10.57;7.50;;;16.30;99.90;;;;;;4918412;29;20462;-70
2021/08/29 00:21:38;;;;;;;10.48;7.80;;;16.30;99.90;;;;;;4935809;29;20462;-70
2021/08/29 00:24:06;;;;;;;11.83;8.20;;;16.30;99.90;;;;;;4935908;29;20764;-70
2021/08/29 00:26:35;;;;;;;7.70;6.90;;;16.30;99.90;;;;;;4935494;29;20931;-70
2021/08/29 00:29:03;;;;;;;12.37;7.67;;;16.30;99.90;;;;;;4919043;29;20205;-70
2021/08/29 00:31:31;;;;;;;11.20;7.70;;;16.30;99.90;;;;;;4918860;29;20447;-70
2021/08/29 00:34:01;;;;;;;9.50;7.53;;;16.30;99.90;;;;;;4918781;29;20445;-70
2021/08/29 00:36:29;;;;;;;11.10;8.80;;;16.30;99.90;;;;;;4918657;29;20465;-70
2021/08/29 00:38:57;;;;;;;11.37;7.90;;;16.30;99.90;;;;;;4937778;29;20805;-70
2021/08/29 00:41:25;;;;;;;11.87;8.47;;;16.30;99.90;;;;;;4922782;29;20489;-70
2021/08/29 00:43:53;;;;;;;9.53;8.50;;;16.30;99.90;;;;;;4922634;29;20472;-70
2021/08/29 00:46:22;;;;;;;9.60;7.50;;;16.30;99.90;;;;;;4937378;29;20430;-70
2021/08/29 00:48:51;;;;;;;10.33;9.03;;;16.30;99.90;;;;;;4922259;29;20467;-70
2021/08/29 00:51:21;;;;;;;9.07;7.70;;;16.30;99.90;;;;;;4922066;29;20518;-70
2021/08/29 00:53:50;;;;;;;11.53;8.60;;;16.30;99.90;;;;;;4922140;29;20467;-70
2021/08/29 00:56:19;;;;;;;11.93;8.17;;;16.30;99.90;;;;;;4922211;29;20497;-70
2021/08/29 00:58:48;;;;;;;9.40;8.40;;;16.30;99.90;;;;;;4922640;29;20448;-70
2021/08/29 01:01:17;;;;;;;9.70;8.37;;;16.30;99.90;;;;;;4938147;29;20448;-70
2021/08/29 01:03:48;;;;;;;9.17;7.00;;;16.30;99.90;;;;;;4922004;29;20522;-70
2021/08/29 01:06:29;;;;;;;10.13;7.07;;;16.30;99.90;;;;;;4919966;29;20485;-70
2021/08/29 01:09:16;;;;;;;9.37;8.33;;;16.30;99.90;;;;;;4922243;29;20497;-70
2021/08/29 01:11:50;;;;;;;9.33;8.40;;;16.30;99.90;;;;;;4921942;29;20500;-70
2021/08/29 01:14:27;;;;;;;11.03;9.23;;;16.30;99.90;;;;;;4921752;29;20543;-70
2021/08/29 01:17:00;;;;;;;14.07;9.20;;;16.30;99.90;;;;;;4922112;29;20426;-70
2021/08/29 01:19:38;;;;;;;8.90;7.10;;;16.30;99.90;;;;;;4921869;29;20452;-70
2021/08/29 01:22:09;;;;;;;8.10;7.30;;;16.30;99.90;;;;;;4921795;29;20439;-70
2021/08/29 01:24:39;;;;;;;8.33;7.30;;;16.20;99.90;;;;;;4921707;29;20457;-70
2021/08/29 01:27:13;;;;;;;7.50;6.30;;;16.20;99.90;;;;;;4921156;29;20460;-70
2021/08/29 01:29:44;;;;;;;8.77;6.73;;;16.20;99.90;;;;;;4921653;29;20502;-70
2021/08/29 01:32:13;;;;;;;7.20;6.10;;;16.20;99.90;;;;;;4921659;29;20503;-70
2021/08/29 01:34:49;;;;;;;6.93;6.10;;;16.20;99.90;;;;;;4920608;29;20438;-70
2021/08/29 01:37:24;;;;;;;7.07;5.77;;;16.20;99.90;;;;;;4922122;29;20680;-70
2021/08/29 01:39:54;;;;;;;6.80;6.20;;;16.20;99.90;;;;;;4921397;29;20918;-70
2021/08/29 01:42:26;;;;;;;7.23;5.40;;;16.20;99.90;;;;;;4921403;29;21008;-70
2021/08/29 01:44:56;;;;;;;6.00;5.40;;;16.20;99.90;;;;;;4921564;29;20484;-70
2021/08/29 01:47:25;;;;;;;5.57;4.90;;;16.10;99.90;;;;;;4920734;29;20795;-70
2021/08/29 01:49:54;;;;;;;6.40;5.50;;;16.10;99.90;;;;;;4938087;29;20411;-70
2021/08/29 01:52:22;;;;;;;6.20;5.60;;;16.10;99.90;;;;;;4921558;29;20546;-71
2021/08/29 01:55:09;;;;;;;5.57;5.07;;;16.00;99.90;;;;;;4938770;29;20459;-70
2021/08/29 01:57:45;;;;;;;5.23;4.73;;;16.00;99.90;;;;;;4921230;29;20814;-70
2021/08/29 02:00:27;;;;;;;5.27;4.60;;;15.90;99.90;;;;;;4921929;29;20422;-70
2021/08/29 02:02:55;;;;;;;6.47;5.00;;;15.90;99.90;;;;;;4919897;29;20476;-70
2021/08/29 02:05:24;;;;;;;6.10;4.80;;;16.00;99.90;;;;;;4921177;29;20199;-70
2021/08/29 02:07:57;;;;;;;6.28;4.43;;;16.00;99.90;;;;;;4920438;29;20530;-71
2021/08/29 02:10:35;;;;;;;7.50;6.67;;;16.00;99.90;;;;;;4921200;29;20192;-70
2021/08/29 02:13:23;;;;;;;5.97;4.87;;;15.90;99.90;;;;;;4920974;29;20486;-70
2021/08/29 02:16:10;;;;;;;6.40;5.00;;;15.90;99.90;;;;;;4920871;29;20441;-70
2021/08/29 02:18:43;;;;;;;5.20;4.57;;;15.80;99.90;;;;;;4918535;29;20455;-71
2021/08/29 02:21:14;;;;;;;5.23;4.73;;;15.80;99.90;;;;;;4921007;29;20500;-70
2021/08/29 02:23:45;;;;;;;6.00;5.50;;;15.80;99.90;;;;;;4920538;29;20914;-70
2021/08/29 02:26:15;;;;;;;6.17;5.37;;;15.80;99.90;;;;;;4921368;29;20454;-70
2021/08/29 02:28:45;;;;;;;5.53;4.93;;;15.70;99.90;;;;;;4920727;29;20996;-71
2021/08/29 02:31:18;;;;;;;6.10;5.43;;;15.70;99.90;;;;;;4920532;29;20509;-70
2021/08/29 02:33:46;;;;;;;6.00;5.30;;;15.70;99.90;;;;;;4920635;29;20979;-71
2021/08/29 02:36:16;;;;;;;5.57;5.07;;;15.70;99.90;;;;;;4919697;29;20925;-70
2021/08/29 02:38:51;;;;;;;5.00;4.50;;;15.70;99.90;;;;;;4920334;29;20191;-71
2021/08/29 02:43:55;;;;;;;6.03;5.43;;;15.70;99.90;;;;;;4920394;29;20310;-70
2021/08/29 02:46:26;;;;;;;5.87;5.27;;;15.70;99.90;;;;;;4920610;29;20865;-71
2021/08/29 02:48:54;;;;;;;7.30;5.50;;;15.70;99.90;;;;;;4937402;29;21010;-71
2021/08/29 02:51:24;;;;;;;8.50;6.17;;;15.70;99.90;;;;;;4920072;29;20455;-70
2021/08/29 02:53:55;;;;;;;6.50;5.90;;;15.60;99.90;;;;;;4919917;29;20475;-71
2021/08/29 02:56:23;;;;;;;8.80;6.60;;;15.60;99.90;;;;;;4919956;29;20452;-71
2021/08/29 02:58:53;;;;;;;7.43;5.70;;;15.60;99.90;;;;;;4937014;29;20440;-71
2021/08/29 03:01:27;;;;;;;8.17;6.40;;;15.60;99.90;;;;;;4919381;29;20476;-71
2021/08/29 03:04:10;;;;;;;8.27;7.47;;;15.60;99.90;;;;;;4915881;29;21012;-71
2021/08/29 03:06:40;;;;;;;8.00;7.20;;;15.60;99.90;;;;;;4919838;29;20900;-71
2021/08/29 03:09:10;;;;;;;7.47;6.78;;;15.50;99.90;;;;;;4919423;29;20444;-71
2021/08/29 03:11:43;;;;;;;8.30;7.50;;;15.50;99.90;;;;;;4919785;29;20239;-71
2021/08/29 03:14:18;;;;;;;7.83;7.10;;;15.50;99.90;;;;;;4919982;29;21064;-72
2021/08/29 03:16:50;;;;;;;9.47;8.47;;;15.50;99.90;;;;;;4919991;29;20786;-71
2021/08/29 03:19:39;;;;;;;8.90;7.60;;;15.50;99.90;;;;;;4936966;29;20448;-71
2021/08/29 03:22:17;;;;;;;8.97;8.00;;;15.50;99.90;;;;;;4919666;29;20430;-71
2021/08/29 03:24:45;;;;;;;8.97;8.10;;;15.50;99.90;;;;;;4934402;29;20454;-71
2021/08/29 03:27:14;;;;;;;9.10;8.00;;;15.50;99.90;;;;;;4936404;29;20444;-71
2021/08/29 03:29:44;;;;;;;10.43;9.33;;;15.50;99.90;;;;;;4920064;29;21000;-71
2021/08/29 03:32:14;;;;;;;10.23;9.10;;;15.50;99.90;;;;;;4919422;29;20452;-71
2021/08/29 03:34:43;;;;;;;13.60;9.23;;;15.50;99.90;;;;;;4919421;29;20454;-71
2021/08/29 03:37:13;;;;;;;10.27;9.20;;;15.50;99.90;;;;;;4919330;29;21045;-71
2021/08/29 03:39:47;;;;;;;19.30;9.73;;;15.50;99.90;;;;;;4919529;29;20451;-71
2021/08/29 03:42:18;;;;;;;11.60;10.40;;;15.50;99.90;;;;;;4917923;29;20421;-71
2021/08/29 03:44:49;;;;;;;11.60;10.40;;;15.50;99.90;;;;;;4880422;29;20447;-71
2021/08/29 03:47:19;;;;;;;10.43;9.43;;;15.60;99.90;;;;;;4892252;29;20215;-71
2021/08/29 03:49:48;;;;;;;12.50;11.30;;;15.60;99.90;;;;;;4935724;29;20537;-71
2021/08/29 03:52:21;;;;;;;10.87;9.77;;;15.60;99.90;;;;;;4919974;29;20576;-71
2021/08/29 03:55:20;;;;;;;10.77;9.70;;;15.60;99.90;;;;;;4927720;29;20419;-71
2021/08/29 03:57:54;;;;;;;10.60;9.50;;;15.60;99.90;;;;;;4919350;29;20422;-71
2021/08/29 04:00:24;;;;;;;11.40;10.30;;;15.50;99.90;;;;;;4919117;29;20426;-71
2021/08/29 04:03:08;;;;;;;11.40;10.30;;;15.50;99.90;;;;;;4936402;29;20462;-71
2021/08/29 04:05:59;;;;;;;11.83;10.67;;;15.50;99.90;;;;;;4935515;29;20825;-71
2021/08/29 04:08:30;;;;;;;12.00;10.33;;;15.50;99.90;;;;;;4918749;29;20965;-71
2021/08/29 04:11:00;;;;;;;11.37;9.67;;;15.50;99.90;;;;;;4918913;29;20422;-71
2021/08/29 04:13:32;;;;;;;12.07;10.80;;;15.50;99.90;;;;;;4918636;29;20475;-71
2021/08/29 04:16:30;;;;;;;12.57;11.47;;;15.50;99.90;;;;;;4926287;29;20471;-71
2021/08/29 04:19:15;;;;;;;12.02;10.82;;;15.40;99.90;;;;;;4917803;29;20460;-71
2021/08/29 04:21:44;;;;;;;12.13;11.07;;;15.50;99.90;;;;;;4919113;29;20192;-71
2021/08/29 04:24:12;;;;;;;11.60;10.50;;;15.60;99.90;;;;;;4917757;29;20457;-71
2021/08/29 04:26:47;;;;;;;10.17;9.17;;;15.60;99.90;;;;;;4919101;29;20200;-71
2021/08/29 04:29:16;;;;;;;11.67;10.47;;;15.60;99.90;;;;;;4918552;29;20537;-71
2021/08/29 04:31:48;;;;;;;9.73;8.83;;;15.50;99.90;;;;;;4913690;29;20454;-70
2021/08/29 04:34:18;;;;;;;10.27;8.90;;;15.50;99.90;;;;;;4918555;29;20450;-71
2021/08/29 04:37:06;;;;;;;11.33;9.50;;;15.50;99.90;;;;;;4918807;29;20439;-71
2021/08/29 04:39:43;;;;;;;9.10;8.20;;;15.50;99.90;;;;;;4918904;29;20533;-71
2021/08/29 04:42:12;;;;;;;10.80;9.70;;;15.50;99.90;;;;;;4918592;29;20437;-70
2021/08/29 04:44:40;;;;;;;9.77;8.77;;;15.50;99.90;;;;;;4918512;29;20479;-70
2021/08/29 04:47:09;;;;;;;10.30;9.30;;;15.50;99.90;;;;;;4918687;29;20994;-71
2021/08/29 04:49:45;;;;;;;10.20;9.10;;;15.50;99.90;;;;;;4919102;29;20490;-71
2021/08/29 04:52:20;;;;;;;10.38;9.38;;;15.50;99.90;;;;;;4915913;29;20960;-71
2021/08/29 04:54:49;;;;;;;10.27;9.27;;;15.50;99.90;;;;;;4918676;29;20227;-70
2021/08/29 04:57:18;;;;;;;11.38;10.18;;;15.50;99.90;;;;;;4918333;29;20461;-70
2021/08/29 04:59:48;;;;;;;10.97;9.97;;;15.50;99.90;;;;;;4918824;29;20582;-70
2021/08/29 05:02:16;;;;;;;10.70;9.40;;;15.50;99.90;;;;;;4918399;29;20459;-70
2021/08/29 05:04:47;;;;;;;11.47;10.07;;;15.50;99.90;;;;;;4918232;29;20471;-70
2021/08/29 05:07:15;;;;;;;10.43;9.40;;;15.50;99.90;;;;;;4918930;29;20455;-70
2021/08/29 05:09:48;;;;;;;10.00;9.00;;;15.50;99.90;;;;;;4918408;29;20439;-70
2021/08/29 05:12:16;;;;;;;9.23;8.40;;;15.50;99.90;;;;;;4918624;29;20551;-70
2021/08/29 05:14:45;;;;;;;9.50;8.47;;;15.50;99.90;;;;;;4918263;29;20895;-71
2021/08/29 05:17:14;;;;;;;8.77;7.97;;;15.50;99.90;;;;;;4917268;29;20411;-70
2021/08/29 05:19:52;;;;;;;9.40;8.33;;;15.50;99.90;;;;;;4910411;29;20471;-70
2021/08/29 05:22:40;;;;;;;9.87;8.57;;;15.50;99.90;;;;;;4935418;29;20872;-70
2021/08/29 05:25:47;;;;;;;8.27;7.45;;;15.50;99.90;;;;;;4897910;29;20448;-70
2021/08/29 05:28:17;;;;;;;8.47;7.60;;;15.50;99.90;;;;;;4898824;29;20204;-70
2021/08/29 05:30:45;;;;;;;7.63;6.93;;;15.50;99.90;;;;;;4913462;29;20997;-70
2021/08/29 05:33:15;;;;;;;8.05;7.25;;;15.50;99.90;;;;;;4920561;29;20453;-70
2021/08/29 05:35:45;;;;;;;8.60;7.33;;;15.60;99.90;;;;;;4921655;29;20230;-70
2021/08/29 05:38:13;;;;;;;8.33;7.40;;;15.60;99.90;;;;;;4921572;29;20891;-70
2021/08/29 05:41:00;;;;;;;9.30;7.63;;;15.50;99.90;;;;;;4921784;29;20481;-69
2021/08/29 05:43:55;;;;;;;9.07;8.10;;;15.50;99.90;;;;;;4885828;29;20465;-70
2021/08/29 05:46:28;;;;;;;8.67;7.37;;;15.50;99.90;;;;;;4920750;29;20957;-70
2021/08/29 05:48:56;;;;;;;9.27;8.07;;;15.50;99.90;;;;;;4921404;29;20866;-70
2021/08/29 05:51:26;;;;;;;9.63;8.27;;;15.50;99.90;;;;;;4938206;29;20475;-70
2021/08/29 05:53:54;;;;;;;8.47;7.67;;;15.50;99.90;;;;;;4921100;29;20478;-70
2021/08/29 05:56:23;;;;;;;9.83;8.87;;;15.50;99.90;;;;;;4921269;29;20479;-70
2021/08/29 05:58:52;;;;;;;9.23;8.27;;;15.50;99.90;;;;;;4921135;29;20459;-70
2021/08/29 06:01:22;;;;;;;8.98;7.53;;;15.50;99.90;;;;;;4920067;29;20443;-70
2021/08/29 06:03:52;;;;;;;9.13;8.23;;;15.50;99.90;;;;;;4920280;29;20232;-70
2021/08/29 06:06:45;;;;;;;9.90;8.38;;;15.50;99.90;;;;;;4920775;29;20775;-70
2021/08/29 06:09:14;;;;;;;8.73;7.90;;;15.50;99.90;;;;;;4921177;29;20549;-70
2021/08/29 06:11:42;;;;;;;8.43;7.53;;;15.50;99.90;;;;;;4921057;29;20476;-70
2021/08/29 06:14:10;;;;;;;8.47;7.67;;;15.50;99.90;;;;;;4938401;29;20546;-70
2021/08/29 06:16:41;;;;;;;8.80;7.27;;;15.50;99.90;;;;;;4921556;29;20485;-70
2021/08/29 06:19:20;;;;;;;10.17;7.83;;;15.50;99.90;;;;;;4921666;29;20462;-70
2021/08/29 06:21:50;;;;;;;8.63;7.80;;;15.50;99.90;;;;;;4937956;29;20800;-70
2021/08/29 06:24:18;;;;;;;9.40;8.17;;;15.50;99.90;;;;;;4921141;29;20826;-70
2021/08/29 06:27:05;;;;;;;9.50;8.40;;;15.50;99.90;;;;;;4934367;29;20462;-70
2021/08/29 06:29:59;;;;;;;10.57;9.47;;;15.50;99.90;;;;;;4915688;29;20475;-70
2021/08/29 06:32:45;;;;;;;10.00;8.80;;;15.50;99.90;;;;;;4911716;29;20459;-70
2021/08/29 06:35:17;;;;;;;10.25;9.25;;;15.50;99.90;;;;;;4920384;29;20612;-70
2021/08/29 06:37:56;;;;;;;10.57;9.57;;;15.50;99.90;;;;;;4920276;29;20210;-70
2021/08/29 06:40:25;;;;;;;10.90;9.90;;;15.50;99.90;;;;;;4920369;29;20961;-70
2021/08/29 06:42:53;;;;;;;10.67;9.40;;;15.50;99.90;;;;;;4936432;29;20980;-70
2021/08/29 06:45:40;;;;;;;10.73;9.00;;;15.60;99.90;;;;;;4937811;29;20496;-71
2021/08/29 06:48:27;;;;;;;10.67;9.63;;;15.60;99.90;;;;;;4937086;29;20547;-70
2021/08/29 06:51:13;;;;;;;9.10;8.20;;;15.60;99.90;;;;;;4937583;29;20437;-70
2021/08/29 06:54:15;;;;;;;12.37;10.37;;;15.60;99.90;;;;;;4898600;29;21103;-70
2021/08/29 06:57:18;;;;;;;10.27;9.07;;;15.60;99.90;;;;;;4860255;29;20430;-70
2021/08/29 06:59:47;;;;;;;8.97;8.07;;;15.60;99.90;;;;;;4890962;29;20919;-70
2021/08/29 07:02:15;;;;;;;9.33;8.37;;;15.60;99.90;;;;;;4883132;29;20967;-70
2021/08/29 07:04:44;;;;;;;12.10;9.17;;;15.60;99.90;;;;;;4882273;29;21032;-70
2021/08/29 07:07:17;;;;;;;11.83;9.67;;;15.60;99.90;;;;;;4882408;29;20809;-70
2021/08/29 07:10:06;;;;;;;9.27;8.38;;;15.60;99.90;;;;;;4910833;29;20564;-71
2021/08/29 07:12:51;;;;;;;8.57;7.77;;;15.60;99.90;;;;;;4919823;29;20311;-71
2021/08/29 07:15:27;;;;;;;9.67;8.73;;;15.60;99.90;;;;;;4920234;29;20530;-70
2021/08/29 07:17:55;;;;;;;10.57;8.37;;;15.60;99.90;;;;;;4920027;29;21003;-71
2021/08/29 07:20:55;;;;;;;8.83;8.03;;;15.60;99.90;;;;;;4892471;29;20999;-71
2021/08/29 07:23:50;;;;;;;8.20;7.40;;;15.60;99.90;;;;;;4909508;29;20472;-71
2021/08/29 07:26:39;;;;;;;9.00;7.50;;;15.60;99.90;;;;;;4937563;29;20447;-71
2021/08/29 07:29:27;;;;;;;9.83;8.27;;;15.70;99.90;;;;;;4938103;29;20444;-71
2021/08/29 07:32:34;;;;;;;8.30;7.47;;;15.70;99.90;;;;;;4919455;29;20822;-71
2021/08/29 07:35:03;;;;;;;7.87;7.07;;;15.70;99.90;;;;;;4920251;29;20459;-71
2021/08/29 07:37:34;;;;;;;8.43;7.47;;;15.70;99.90;;;;;;4937330;29;20523;-71
2021/08/29 07:40:03;;;;;;;7.67;6.90;;;15.70;99.90;;;;;;4920567;29;20430;-71
2021/08/29 07:42:35;;;;;;;8.10;7.30;;;15.70;99.90;;;;;;4921302;29;20432;-71
2021/08/29 07:45:09;;;;;;;7.38;6.68;;;15.80;99.90;;;;;;4922006;29;20984;-71
2021/08/29 07:47:40;;;;;;;7.00;6.30;;;15.80;99.90;;;;;;4922094;29;20627;-71
2021/08/29 07:50:09;;;;;;;7.50;6.70;;;15.80;99.90;;;;;;4922646;29;20482;-71
2021/08/29 07:52:38;;;;;;;7.65;5.80;;;15.80;99.90;;;;;;4919279;29;20474;-71
2021/08/29 07:55:24;;;;;;;5.97;5.37;;;15.90;99.90;;;;;;4939581;29;20234;-71
2021/08/29 07:58:18;;;;;;;7.73;6.73;;;16.00;99.90;;;;;;4939061;29;20490;-71
2021/08/29 08:00:48;;;;;;;8.40;5.83;;;16.00;99.90;;;;;;4923146;29;20945;-71
2021/08/29 08:03:34;;;;;;;6.40;5.40;;;16.00;99.90;;;;;;4939412;29;20459;-71
2021/08/29 08:06:22;;;;;;;7.93;6.20;;;16.00;99.90;;;;;;4938039;29;20491;-70
2021/08/29 08:09:08;;;;;;;5.20;4.70;;;16.00;99.90;;;;;;4938224;29;20514;-70
2021/08/29 08:11:55;;;;;;;5.60;5.00;;;16.10;99.90;;;;;;4937171;29;20517;-71
2021/08/29 08:14:25;;;;;;;6.70;5.13;;;16.10;99.90;;;;;;4919495;29;20530;-71
2021/08/29 08:16:53;;;;;;;5.40;5.00;;;16.20;99.90;;;;;;4920002;29;20452;-71
2021/08/29 08:19:29;;;;;;;6.83;6.13;;;16.20;99.90;;;;;;4919357;29;20524;-71
2021/08/29 08:21:58;;;;;;;4.97;4.43;;;16.20;99.90;;;;;;4919261;29;20451;-71
2021/08/29 08:24:36;;;;;;;4.70;4.13;;;16.20;99.90;;;;;;4918781;29;20471;-71
2021/08/29 08:27:38;;;;;;;4.00;3.60;;;16.20;99.90;;;;;;4934666;29;20951;-71
2021/08/29 08:30:27;;;;;;;4.43;3.97;;;16.30;99.90;;;;;;4935918;29;20300;-71
2021/08/29 08:33:14;;;;;;;4.63;4.23;;;16.30;99.90;;;;;;4936045;29;20445;-71
2021/08/29 08:36:00;;;;;;;4.30;3.90;;;16.40;99.90;;;;;;4935864;29;20461;-71
2021/08/29 08:38:47;;;;;;;4.00;3.60;;;16.40;99.90;;;;;;4936613;29;20442;-71
2021/08/29 08:41:29;;;;;;;4.87;4.10;;;16.30;99.90;;;;;;4917916;29;20430;-71
2021/08/29 08:44:36;;;;;;;4.23;3.83;;;16.40;99.90;;;;;;4896214;29;20502;-71
2021/08/29 08:47:26;;;;;;;4.90;4.40;;;16.40;99.90;;;;;;4896276;29;20452;-71
2021/08/29 08:50:14;;;;;;;4.20;3.80;;;16.40;99.90;;;;;;4926683;29;20492;-71
2021/08/29 08:53:02;;;;;;;5.23;4.80;;;16.40;99.90;;;;;;4935957;29;20911;-71
2021/08/29 08:55:51;;;;;;;3.50;3.17;;;16.40;99.90;;;;;;4935220;29;20784;-71
2021/08/29 08:58:41;;;;;;;4.27;3.60;;;16.50;99.90;;;;;;4935919;29;20190;-71
2021/08/29 09:01:42;;;;;;;3.55;3.25;;;16.50;99.90;;;;;;4916561;29;20530;-71
2021/08/29 09:04:31;;;;;;;4.70;3.63;;;16.50;99.90;;;;;;4920009;29;20475;-71
2021/08/29 09:07:00;;;;;;;4.80;3.47;;;16.60;99.90;;;;;;4922175;29;20517;-71
2021/08/29 09:09:32;;;;;;;3.73;3.40;;;16.60;99.90;;;;;;4922156;29;20455;-71
2021/08/29 09:12:01;;;;;;;4.60;3.53;;;16.60;99.90;;;;;;4922012;29;20453;-74
2021/08/29 09:14:41;;;;;;;4.07;3.67;;;16.60;99.90;;;;;;4922216;29;20453;-71
2021/08/29 09:17:23;;;;;;;3.70;3.30;;;16.70;99.90;;;;;;4922080;29;20485;-71
2021/08/29 09:20:12;;;;;;;3.47;3.17;;;16.70;99.90;;;;;;4921964;29;20421;-71
2021/08/29 09:22:41;;;;;;;3.67;2.93;;;16.70;99.90;;;;;;4939020;29;20511;-71
2021/08/29 09:25:30;;;;;;;3.97;3.00;;;16.80;99.90;;;;;;4936831;29;20867;-71
2021/08/29 09:28:24;;;;;;;4.30;3.90;;;16.80;99.90;;;;;;4917741;29;20521;-71
2021/08/29 09:30:57;;;;;;;5.00;3.10;;;16.80;99.90;;;;;;4921819;29;20523;-71
2021/08/29 09:33:31;;;;;;;2.97;2.67;;;16.80;99.90;;;;;;4921533;29;20524;-71
2021/08/29 09:36:03;;;;;;;2.67;2.28;;;16.80;99.90;;;;;;4921119;29;20491;-71
2021/08/29 09:38:38;;;;;;;2.70;2.20;;;16.90;99.90;;;;;;4938755;29;20282;-71
2021/08/29 09:41:25;;;;;;;5.17;2.50;;;17.00;99.90;;;;;;4921724;29;20442;-70
2021/08/29 09:44:16;;;;;;;2.87;2.53;;;16.90;99.90;;;;;;4938977;29;20445;-71
2021/08/29 09:46:53;;;;;;;2.77;2.23;;;16.90;99.90;;;;;;4921778;29;20490;-71
2021/08/29 09:49:40;;;;;;;2.63;2.43;;;16.90;99.90;;;;;;4939282;29;20854;-71
2021/08/29 09:52:28;;;;;;;2.80;2.60;;;16.90;99.90;;;;;;4919156;29;20465;-71
2021/08/29 09:55:29;;;;;;;2.80;2.30;;;16.90;99.90;;;;;;4921570;29;20441;-71
2021/08/29 09:58:25;;;;;;;2.80;2.50;;;16.90;99.90;;;;;;4938260;29;20524;-71
2021/08/29 10:01:15;;;;;;;3.40;2.80;;;16.90;99.90;;;;;;4938681;29;20942;-71
2021/08/29 10:04:19;;;;;;;3.78;2.60;;;17.00;99.90;;;;;;4920066;29;20448;-71
2021/08/29 10:06:50;;;;;;;3.13;2.83;;;17.10;99.90;;;;;;4921451;29;20204;-72
2021/08/29 10:09:26;;;;;;;3.40;2.63;;;17.10;99.90;;;;;;4921148;29;20546;-71
2021/08/29 10:12:03;;;;;;;2.87;2.47;;;17.20;99.90;;;;;;4904137;29;20851;-71
2021/08/29 10:14:33;;;;;;;3.27;2.97;;;17.20;99.90;;;;;;4911033;29;21331;-71
2021/08/29 10:17:23;;;;;;;3.07;2.77;;;17.20;99.90;;;;;;4937293;29;20425;-71
2021/08/29 10:20:13;;;;;;;3.40;3.10;;;17.20;99.90;;;;;;4936810;29;20966;-71
2021/08/29 10:23:00;;;;;;;3.60;2.40;;;17.20;99.90;;;;;;4935906;29;21032;-71
2021/08/29 10:25:32;;;;;;;2.90;2.60;;;17.20;99.90;;;;;;4918839;29;20426;-71
2021/08/29 10:28:08;;;;;;;3.33;3.03;;;17.30;99.90;;;;;;4936137;29;20961;-71
2021/08/29 10:30:53;;;;;;;3.40;2.53;;;17.30;99.90;;;;;;4883926;29;20432;-71
2021/08/29 10:33:32;;;;;;;3.23;2.93;;;17.30;99.90;;;;;;4901710;29;20494;-71
2021/08/29 10:36:09;;;;;;;2.83;2.53;;;17.30;99.90;;;;;;4938026;29;20393;-70
2021/08/29 10:39:10;;;;;;;3.00;2.70;;;17.30;99.90;;;;;;4915218;29;20224;-71
2021/08/29 10:42:08;;;;;;;3.35;3.05;;;17.30;99.90;;;;;;4911135;29;20522;-71
2021/08/29 10:44:55;;;;;;;5.47;3.70;;;17.30;99.90;;;;;;4937514;29;20310;-71
2021/08/29 10:47:45;;;;;;;4.03;3.63;;;17.40;99.90;;;;;;4917350;29;20438;-71
2021/08/29 10:50:32;;;;;;;5.53;4.97;;;17.40;99.90;;;;;;4938061;29;20478;-71
2021/08/29 10:53:00;;;;;;;4.63;4.23;;;17.40;99.90;;;;;;4906994;29;20467;-71
2021/08/29 10:55:30;;;;;;;4.87;4.40;;;17.40;99.90;;;;;;4901673;29;20547;-70
2021/08/29 10:58:04;;;;;;;5.37;4.97;;;17.50;99.90;;;;;;4920111;29;20410;-71
2021/08/29 11:00:34;;;;;;;4.80;4.40;;;17.50;99.90;;;;;;4920068;29;20447;-71
2021/08/29 11:03:28;;;;;;;4.60;4.20;;;17.50;99.90;;;;;;4919289;29;20472;-71
2021/08/29 11:06:46;;;;;;;5.07;4.23;;;17.60;99.90;;;;;;4901836;29;20982;-71
2021/08/29 11:09:44;;;;;;;5.70;4.67;;;17.60;99.90;;;;;;4937116;29;20457;-71
2021/08/29 11:12:32;;;;;;;5.10;4.70;;;17.60;99.90;;;;;;4920171;29;20493;-71
2021/08/29 11:15:07;;;;;;;33.87;5.93;;;17.60;99.90;;;;;;4919769;29;20478;-71
2021/08/29 11:17:38;;;;;;;4.20;3.80;;;17.60;99.90;;;;;;4918697;29;20490;-71
2021/08/29 11:20:13;;;;;;;4.07;3.77;;;17.70;99.90;;;;;;4919342;29;20223;-71
2021/08/29 11:23:04;;;;;;;5.43;5.03;;;17.70;99.90;;;;;;4933906;29;20882;-71
2021/08/29 11:25:52;;;;;;;5.13;4.70;;;17.70;99.90;;;;;;4916537;29;20422;-71
2021/08/29 11:28:43;;;;;;;4.90;4.50;;;17.70;99.90;;;;;;4928825;29;20448;-71
2021/08/29 11:31:51;;;;;;;6.80;6.20;;;17.70;99.90;;;;;;4919907;29;20427;-71
2021/08/29 11:34:22;;;;;;;6.33;5.83;;;17.70;99.90;;;;;;4919569;29;20560;-71
2021/08/29 11:36:52;;;;;;;4.87;4.37;;;17.70;99.90;;;;;;4919281;29;20821;-71
2021/08/29 11:39:35;;;;;;;5.13;4.63;;;17.70;99.90;;;;;;4919388;29;20437;-71
2021/08/29 11:42:18;;;;;;;5.40;4.90;;;17.70;99.90;;;;;;4919441;29;20485;-71
2021/08/29 11:44:50;;;;;;;5.60;5.10;;;17.70;99.90;;;;;;4918392;29;20459;-71
2021/08/29 11:47:21;;;;;;;5.20;4.70;;;17.80;99.90;;;;;;4919487;29;20451;-71
2021/08/29 11:50:21;;;;;;;6.03;5.43;;;17.80;99.90;;;;;;4931011;29;20466;-71
2021/08/29 11:53:10;;;;;;;5.53;5.03;;;17.90;99.90;;;;;;4922331;29;20930;-71
2021/08/29 11:55:38;;;;;;;6.10;5.50;;;17.90;99.90;;;;;;4920866;29;20457;-71
2021/08/29 11:58:16;;;;;;;7.10;6.40;;;17.90;99.90;;;;;;4921417;29;20887;-71
2021/08/29 12:00:45;;;;;;;6.30;5.70;;;17.90;99.90;;;;;;4921340;29;20538;-71
2021/08/29 12:03:32;;;;;;;5.87;5.37;;;17.90;99.90;;;;;;4919493;29;20494;-71
2021/08/29 12:06:09;;;;;;;7.90;7.10;;;17.90;99.90;;;;;;4919947;29;20506;-71
2021/08/29 12:09:08;;;;;;;6.67;6.07;;;17.90;99.90;;;;;;4936907;29;20479;-71
2021/08/29 12:12:07;;;;;;;7.83;6.30;;;17.90;99.90;;;;;;4917719;29;20426;-71
2021/08/29 12:15:12;;;;;;;6.43;5.93;;;17.90;99.90;;;;;;4933439;29;20528;-71
2021/08/29 12:18:02;;;;;;;7.40;6.67;;;17.90;99.90;;;;;;4936435;29;20429;-71
2021/08/29 12:20:36;;;;;;;7.67;6.20;;;18.00;99.90;;;;;;4918886;29;20451;-71
2021/08/29 12:23:26;;;;;;;6.68;6.07;;;18.00;99.90;;;;;;4935255;29;20958;-71
2021/08/29 12:25:58;;;;;;;6.50;5.87;;;18.10;99.90;;;;;;4918805;29;20287;-71
2021/08/29 12:28:27;;;;;;;6.30;5.70;;;18.10;99.90;;;;;;4918864;29;20466;-71
2021/08/29 12:30:57;;;;;;;6.43;5.83;;;18.10;99.90;;;;;;4918822;29;20457;-71
2021/08/29 12:33:28;;;;;;;7.37;6.47;;;18.10;99.90;;;;;;4918619;29;21027;-71
2021/08/29 12:35:58;;;;;;;6.93;6.00;;;18.20;99.90;;;;;;4938440;29;20444;-71
2021/08/29 12:38:32;;;;;;;6.97;6.33;;;18.20;99.90;;;;;;4922697;29;20842;-71
2021/08/29 12:41:02;;;;;;;6.57;5.97;;;18.20;99.90;;;;;;4922602;29;20459;-71
2021/08/29 12:43:31;;;;;;;6.53;5.93;;;18.20;99.90;;;;;;4922625;29;20460;-71
2021/08/29 12:46:10;;;;;;;5.80;5.30;;;18.30;99.90;;;;;;4922542;29;20873;-71
2021/08/29 12:48:39;;;;;;;6.25;5.65;;;18.30;99.90;;;;;;4939338;29;20452;-71
2021/08/29 12:51:10;;;;;;;5.70;5.20;;;18.40;99.90;;;;;;4939487;29;20188;-71
2021/08/29 12:53:39;;;;;;;6.27;5.67;;;18.40;99.90;;;;;;4939341;29;20489;-71
2021/08/29 12:56:19;;;;;;;6.40;5.90;;;18.40;99.90;;;;;;4937940;29;20540;-71
2021/08/29 12:58:48;;;;;;;6.23;5.63;;;18.50;99.90;;;;;;4902962;29;20833;-71
2021/08/29 13:01:19;;;;;;;6.03;5.33;;;18.50;99.90;;;;;;4884578;29;20456;-71
2021/08/29 13:03:50;;;;;;;6.00;5.50;;;18.50;99.90;;;;;;4901657;29;20516;-71
2021/08/29 13:06:23;;;;;;;6.20;5.70;;;18.50;99.90;;;;;;4901709;29;20478;-71
2021/08/29 13:09:08;;;;;;;8.40;7.20;;;18.50;99.90;;;;;;4884398;29;20472;-71
2021/08/29 13:11:44;;;;;;;6.67;5.83;;;18.40;99.90;;;;;;4884751;29;20472;-71
2021/08/29 13:14:26;;;;;;;7.23;5.80;;;18.40;99.90;;;;;;4901249;29;20927;-72
2021/08/29 13:16:54;;;;;;;6.10;5.50;;;18.40;99.90;;;;;;4901795;29;20421;-71
2021/08/29 13:19:25;;;;;;;7.13;6.03;;;18.40;99.90;;;;;;4902588;29;20835;-72
2021/08/29 13:21:59;;;;;;;6.22;5.63;;;18.40;99.90;;;;;;4902300;29;20531;-72
2021/08/29 13:24:28;;;;;;;7.47;6.73;;;18.50;99.90;;;;;;4921873;29;20249;-72
2021/08/29 13:26:58;;;;;;;7.60;6.80;;;18.50;99.90;;;;;;4921305;29;20453;-71
2021/08/29 13:29:35;;;;;;;7.47;6.77;;;18.60;99.90;;;;;;4921620;29;20207;-71
2021/08/29 13:32:04;;;;;;;8.07;7.27;;;18.60;99.90;;;;;;4938896;29;20424;-72
2021/08/29 13:34:32;;;;;;;7.00;6.40;;;18.60;99.90;;;;;;4939059;29;20474;-72
2021/08/29 13:37:03;;;;;;;6.77;6.17;;;18.60;99.90;;;;;;4938946;29;20479;-71